Terminal Aerodrome Forecast
Issued by NWS

Home | Current Version | Previous Version | Graphics & Text | Print | Product List | Glossary On
Versions: 1 2 3 4 5 6 7 8 9 10 11 12 13
000
FTUS43 KICT 261133
TAFRSL
TAF
KRSL 261133Z 2612/2712 33014KT P6SM OVC060
     FM261600 34021G31KT P6SM SCT080
     FM270000 36007KT P6SM SCT120
     FM270600 10006KT P6SM SCT120=

USA.gov is the U.S. government's official web portal to all federal, state and local government web resources and services.